createdAt,value
2023-05-14T00:00:47.928Z,71.76
2023-05-14T00:03:15.251Z,71.92
2023-05-14T00:05:42.430Z,71.77
2023-05-14T00:08:09.487Z,71.83
2023-05-14T00:10:36.567Z,71.95
2023-05-14T00:13:03.625Z,71.94
2023-05-14T00:15:32.278Z,72.06
2023-05-14T00:18:00.733Z,72.06
2023-05-14T00:20:27.807Z,72.78
2023-05-14T00:22:54.887Z,72.93
2023-05-14T00:25:21.975Z,73.25
2023-05-14T00:27:49.017Z,73.06
2023-05-14T00:30:16.137Z,73.10
2023-05-14T00:32:43.291Z,73.24
2023-05-14T00:35:10.358Z,73.17
2023-05-14T00:37:37.831Z,73.06
2023-05-14T00:40:08.730Z,73.86
2023-05-14T00:42:35.791Z,73.38
2023-05-14T00:45:02.939Z,73.26
2023-05-14T00:47:30.056Z,73.63
2023-05-14T00:49:57.442Z,73.28
2023-05-14T00:52:24.500Z,72.97
2023-05-14T00:54:52.462Z,73.51
2023-05-14T00:57:19.670Z,73.38
2023-05-14T00:59:47.090Z,73.42
2023-05-14T01:02:14.506Z,73.33
2023-05-14T01:04:42.141Z,73.47
2023-05-14T01:07:31.228Z,73.77
2023-05-14T01:10:06.615Z,73.21
2023-05-14T01:12:38.077Z,73.69
2023-05-14T01:15:11.024Z,73.40
2023-05-14T01:18:11.314Z,73.47
2023-05-14T01:20:38.790Z,73.39
2023-05-14T01:23:06.007Z,73.83
2023-05-14T01:25:33.750Z,74.33
2023-05-14T01:28:13.200Z,74.34
2023-05-14T01:31:03.894Z,74.10
2023-05-14T01:33:33.634Z,74.55
2023-05-14T01:36:00.824Z,73.59
2023-05-14T01:38:31.664Z,73.89
2023-05-14T01:40:59.367Z,73.68
2023-05-14T01:43:27.158Z,74.05
2023-05-14T01:45:55.886Z,73.42
2023-05-14T01:48:23.212Z,73.53
2023-05-14T01:50:50.703Z,73.44
2023-05-14T01:53:17.748Z,73.68
2023-05-14T01:55:44.810Z,74.07
2023-05-14T01:58:12.370Z,73.94
2023-05-14T02:00:39.416Z,73.96
2023-05-14T02:03:09.218Z,74.04
2023-05-14T02:05:36.460Z,74.55
2023-05-14T02:08:03.655Z,74.41
2023-05-14T02:10:30.813Z,74.82
2023-05-14T02:12:58.056Z,74.82
2023-05-14T02:15:25.621Z,74.88
2023-05-14T02:17:52.905Z,74.66
2023-05-14T02:20:20.219Z,74.47
2023-05-14T02:22:47.567Z,74.17
2023-05-14T02:25:14.761Z,74.11
2023-05-14T02:27:41.845Z,74.12
2023-05-14T02:30:10.468Z,73.82
2023-05-14T02:32:38.154Z,74.21
2023-05-14T02:35:06.221Z,74.25
2023-05-14T02:37:34.882Z,74.17
2023-05-14T02:40:01.975Z,73.74
2023-05-14T02:42:29.304Z,73.65
2023-05-14T02:44:56.544Z,74.09
2023-05-14T02:47:23.830Z,74.44
2023-05-14T02:49:51.591Z,73.90
2023-05-14T02:52:18.666Z,73.71
2023-05-14T02:54:46.016Z,73.82
2023-05-14T02:57:13.589Z,73.53
2023-05-14T02:59:40.640Z,73.83
2023-05-14T03:02:08.125Z,73.85
2023-05-14T03:04:35.573Z,73.40
2023-05-14T03:07:02.642Z,73.12
2023-05-14T03:09:29.809Z,73.40
2023-05-14T03:11:56.963Z,73.04
2023-05-14T03:14:24.016Z,73.29
2023-05-14T03:16:51.129Z,72.77
2023-05-14T03:19:18.194Z,73.16
2023-05-14T03:21:45.662Z,73.23
2023-05-14T03:24:12.741Z,73.60
2023-05-14T03:26:39.908Z,73.57
2023-05-14T03:29:07.019Z,72.96
2023-05-14T03:31:34.315Z,72.76
2023-05-14T03:34:01.477Z,71.84
2023-05-14T03:36:28.594Z,71.50
2023-05-14T03:38:55.683Z,71.29
2023-05-14T03:41:23.030Z,70.87
2023-05-14T03:43:50.080Z,71.24
2023-05-14T03:46:17.213Z,71.13
2023-05-14T03:48:44.639Z,71.02
2023-05-14T03:51:11.721Z,70.38
2023-05-14T03:53:38.796Z,70.29
2023-05-14T03:56:05.915Z,70.23
2023-05-14T03:58:32.991Z,69.75
2023-05-14T04:01:00.564Z,69.50
2023-05-14T04:03:27.798Z,69.75
2023-05-14T04:05:55.059Z,69.66
2023-05-14T04:08:22.128Z,69.65
2023-05-14T04:10:50.003Z,69.52
2023-05-14T04:13:17.134Z,70.02
2023-05-14T04:15:44.212Z,69.50
2023-05-14T04:18:11.511Z,69.59
2023-05-14T04:20:38.705Z,69.44
2023-05-14T04:23:05.746Z,69.75
2023-05-14T04:25:32.809Z,69.46
2023-05-14T04:27:59.870Z,69.41
2023-05-14T04:30:26.972Z,69.59
2023-05-14T04:32:54.197Z,69.66
2023-05-14T04:35:24.116Z,69.47
2023-05-14T04:37:52.091Z,69.83
2023-05-14T04:40:19.281Z,69.08
2023-05-14T04:42:46.304Z,69.37
2023-05-14T04:45:13.604Z,69.45
2023-05-14T04:47:41.643Z,69.50
2023-05-14T04:50:09.726Z,69.98
2023-05-14T04:52:36.829Z,69.50
2023-05-14T04:55:04.023Z,69.67
2023-05-14T04:57:31.077Z,69.65
2023-05-14T04:59:58.169Z,69.80
2023-05-14T05:02:25.527Z,70.16
2023-05-14T05:04:52.585Z,69.79
2023-05-14T05:07:19.632Z,69.48
2023-05-14T05:09:46.766Z,69.98
2023-05-14T05:12:13.829Z,69.23
2023-05-14T05:14:40.905Z,68.95
2023-05-14T05:17:08.352Z,68.57
2023-05-14T05:19:43.027Z,68.09
2023-05-14T05:22:11.736Z,66.98
2023-05-14T05:24:38.865Z,65.46
2023-05-14T05:27:06.171Z,65.18
2023-05-14T05:29:33.252Z,64.97
2023-05-14T05:32:00.490Z,65.34
2023-05-14T05:34:27.765Z,65.29
2023-05-14T05:36:54.823Z,64.90
2023-05-14T05:39:21.997Z,65.60
2023-05-14T05:41:49.353Z,65.57
2023-05-14T05:44:16.413Z,64.91
2023-05-14T05:46:43.556Z,64.98
2023-05-14T05:49:10.625Z,62.99
2023-05-14T05:51:37.746Z,62.73
2023-05-14T05:54:04.805Z,62.53
2023-05-14T05:56:31.954Z,62.01
2023-05-14T05:58:59.035Z,62.75
2023-05-14T06:01:26.701Z,62.72
2023-05-14T06:03:53.814Z,62.29
2023-05-14T06:06:21.722Z,62.43
2023-05-14T06:08:48.991Z,62.26
2023-05-14T06:11:16.870Z,61.84
2023-05-14T06:13:44.149Z,61.61
2023-05-14T06:16:11.264Z,61.37
2023-05-14T06:18:38.475Z,61.56
2023-05-14T06:21:05.710Z,61.07
2023-05-14T06:23:33.332Z,59.93
2023-05-14T06:26:00.568Z,60.84
2023-05-14T06:28:27.673Z,59.69
2023-05-14T06:30:54.779Z,59.92
2023-05-14T06:33:29.646Z,59.47
2023-05-14T06:36:00.972Z,59.81
2023-05-14T06:38:28.057Z,59.80
2023-05-14T06:40:55.223Z,59.63
2023-05-14T06:43:22.272Z,59.14
2023-05-14T06:45:50.483Z,59.43
2023-05-14T06:48:21.104Z,58.40
2023-05-14T06:50:49.173Z,58.03
2023-05-14T06:53:16.454Z,57.76
2023-05-14T06:55:43.572Z,57.92
2023-05-14T06:58:10.997Z,57.64
2023-05-14T07:00:38.057Z,57.29
2023-05-14T07:03:05.180Z,57.71
2023-05-14T07:05:32.531Z,57.83
2023-05-14T07:07:59.817Z,57.91
2023-05-14T07:10:27.185Z,57.39
2023-05-14T07:12:54.358Z,56.90
2023-05-14T07:15:21.526Z,56.32
2023-05-14T07:17:49.007Z,56.31
2023-05-14T07:20:16.129Z,55.44
2023-05-14T07:22:43.216Z,55.88
2023-05-14T07:25:10.287Z,55.05
2023-05-14T07:27:37.398Z,53.78
2023-05-14T07:30:04.675Z,51.43
2023-05-14T07:32:31.778Z,52.52
2023-05-14T07:34:58.994Z,51.41
2023-05-14T07:37:26.121Z,51.81
2023-05-14T07:39:53.723Z,51.19
2023-05-14T07:42:34.499Z,50.95
2023-05-14T07:45:04.136Z,50.59
2023-05-14T07:47:31.611Z,50.57
2023-05-14T07:49:58.998Z,49.72
2023-05-14T07:52:26.134Z,50.26
2023-05-14T07:54:53.416Z,50.32
2023-05-14T07:57:20.536Z,50.70
2023-05-14T07:59:48.201Z,50.21
2023-05-14T08:02:16.806Z,49.41
2023-05-14T08:04:44.900Z,49.36
2023-05-14T08:07:12.096Z,49.07
2023-05-14T08:09:39.242Z,49.25
2023-05-14T08:12:06.758Z,49.45
2023-05-14T08:14:33.960Z,49.91
2023-05-14T08:17:01.045Z,50.59
2023-05-14T08:19:28.491Z,50.17
2023-05-14T08:21:55.574Z,50.21
2023-05-14T08:24:22.634Z,49.70
2023-05-14T08:26:49.757Z,49.83
2023-05-14T08:29:16.979Z,50.15
2023-05-14T08:31:44.197Z,50.25
2023-05-14T08:34:11.275Z,49.59
2023-05-14T08:36:41.480Z,49.68
2023-05-14T08:39:08.664Z,48.18
2023-05-14T08:41:36.349Z,47.09
2023-05-14T08:44:10.760Z,46.99
2023-05-14T08:46:38.868Z,45.81
2023-05-14T08:49:18.496Z,47.27
2023-05-14T08:51:48.402Z,46.69
2023-05-14T08:54:18.754Z,45.45
2023-05-14T08:56:46.461Z,46.53
2023-05-14T08:59:13.576Z,47.79
2023-05-14T09:01:47.680Z,46.53
2023-05-14T09:04:21.150Z,46.86
2023-05-14T09:06:53.486Z,46.55
2023-05-14T09:09:23.762Z,45.50
2023-05-14T09:11:52.043Z,46.00
2023-05-14T09:14:20.088Z,46.86
2023-05-14T09:16:49.326Z,44.21
2023-05-14T09:19:19.036Z,44.13
2023-05-14T09:21:47.747Z,45.30
2023-05-14T09:24:22.296Z,46.26
2023-05-14T09:26:53.718Z,45.72
2023-05-14T09:29:20.853Z,46.07
2023-05-14T09:31:50.675Z,46.00
2023-05-14T09:34:28.946Z,46.24
2023-05-14T09:37:01.282Z,47.18
2023-05-14T09:39:29.276Z,47.59
2023-05-14T09:41:56.705Z,48.05
2023-05-14T09:44:24.645Z,48.70
2023-05-14T09:46:52.540Z,48.45
2023-05-14T09:49:20.148Z,48.59
2023-05-14T09:51:48.609Z,48.39
2023-05-14T09:54:15.920Z,47.97
2023-05-14T09:56:43.529Z,47.88
2023-05-14T09:59:10.905Z,47.19
2023-05-14T10:01:38.389Z,46.03
2023-05-14T10:04:07.541Z,45.81
2023-05-14T10:06:38.343Z,46.54
2023-05-14T10:09:12.046Z,46.93
2023-05-14T10:11:43.014Z,44.68
2023-05-14T10:14:39.005Z,43.93
2023-05-14T10:17:06.517Z,45.13
2023-05-14T10:19:35.356Z,45.61
2023-05-14T10:22:07.642Z,44.80
2023-05-14T10:24:34.959Z,44.37
2023-05-14T10:27:02.283Z,45.37
2023-05-14T10:29:34.567Z,45.75
2023-05-14T10:32:06.552Z,45.28
2023-05-14T10:34:38.684Z,44.97
2023-05-14T10:37:08.306Z,45.39
2023-05-14T10:39:41.363Z,44.67
2023-05-14T10:42:10.677Z,44.83
2023-05-14T10:44:42.901Z,44.65
2023-05-14T10:47:09.982Z,45.44
2023-05-14T10:49:43.407Z,45.65
2023-05-14T10:52:12.249Z,45.76
2023-05-14T10:54:39.574Z,45.48
2023-05-14T10:57:11.421Z,43.94
2023-05-14T10:59:42.009Z,45.42
2023-05-14T11:02:28.615Z,45.04
2023-05-14T11:04:58.134Z,44.18
2023-05-14T11:07:28.618Z,45.02
2023-05-14T11:10:00.640Z,45.53
2023-05-14T11:12:27.975Z,44.46
2023-05-14T11:14:58.081Z,44.48
2023-05-14T11:17:26.729Z,43.52
2023-05-14T11:19:54.494Z,43.66
2023-05-14T11:22:21.981Z,43.58
2023-05-14T11:24:49.101Z,41.72
2023-05-14T11:27:17.270Z,42.77
2023-05-14T11:29:46.125Z,42.97
2023-05-14T11:32:14.091Z,43.02
2023-05-14T11:34:42.132Z,42.96
2023-05-14T11:37:10.220Z,43.60
2023-05-14T11:39:40.267Z,42.46
2023-05-14T11:42:12.276Z,43.22
2023-05-14T11:44:39.586Z,41.96
2023-05-14T11:47:06.965Z,41.43
2023-05-14T11:49:37.650Z,41.32
2023-05-14T11:52:06.381Z,42.02
2023-05-14T11:54:34.095Z,41.13
2023-05-14T11:57:04.530Z,41.75
2023-05-14T11:59:32.551Z,41.78
2023-05-14T12:01:59.658Z,41.39
2023-05-14T12:04:26.844Z,41.16
2023-05-14T12:06:54.007Z,41.31
2023-05-14T12:09:21.980Z,40.59
2023-05-14T12:11:50.701Z,41.96
2023-05-14T12:14:24.599Z,41.73
2023-05-14T12:16:51.920Z,41.86
2023-05-14T12:19:20.399Z,41.80
2023-05-14T12:21:48.912Z,41.94
2023-05-14T12:24:18.278Z,42.16
2023-05-14T12:26:47.138Z,42.44
2023-05-14T12:29:15.412Z,41.16
2023-05-14T12:31:47.310Z,41.44
2023-05-14T12:34:14.862Z,42.19
2023-05-14T12:36:42.887Z,42.00
2023-05-14T12:39:10.711Z,42.06
2023-05-14T12:41:37.796Z,42.78
2023-05-14T12:44:05.085Z,42.84
2023-05-14T12:46:32.873Z,43.03
2023-05-14T12:49:00.244Z,43.63
2023-05-14T12:51:27.295Z,43.94
2023-05-14T12:53:54.377Z,43.15
2023-05-14T12:56:21.964Z,42.27
2023-05-14T12:58:49.101Z,43.17
2023-05-14T13:01:16.502Z,43.48
2023-05-14T13:03:43.672Z,42.84
2023-05-14T13:06:10.998Z,43.52
2023-05-14T13:08:38.167Z,42.78
2023-05-14T13:11:05.304Z,43.34
2023-05-14T13:13:32.368Z,43.12
2023-05-14T13:15:59.572Z,42.70
2023-05-14T13:18:26.898Z,43.51
2023-05-14T13:20:54.096Z,43.03
2023-05-14T13:23:21.161Z,43.94
2023-05-14T13:25:50.029Z,44.22
2023-05-14T13:28:17.241Z,44.64
2023-05-14T13:31:04.312Z,45.01
2023-05-14T13:33:31.410Z,44.95
2023-05-14T13:35:58.474Z,45.09
2023-05-14T13:38:25.487Z,45.08
2023-05-14T13:40:52.512Z,45.29
2023-05-14T13:43:19.687Z,45.16
2023-05-14T13:45:46.804Z,45.23
2023-05-14T13:48:14.063Z,45.47
2023-05-14T13:50:41.221Z,46.07
2023-05-14T13:53:08.306Z,46.26
2023-05-14T13:55:35.398Z,46.74
2023-05-14T13:58:02.595Z,46.94
2023-05-14T14:00:29.644Z,47.17
2023-05-14T14:02:56.843Z,47.46
2023-05-14T14:05:28.247Z,46.74
2023-05-14T14:08:01.143Z,46.25
2023-05-14T14:10:36.496Z,46.38
2023-05-14T14:13:03.584Z,46.80
2023-05-14T14:15:30.686Z,46.88
2023-05-14T14:17:57.845Z,47.33
2023-05-14T14:20:24.905Z,46.97
2023-05-14T14:22:51.964Z,47.31
2023-05-14T14:25:19.060Z,48.27
2023-05-14T14:27:47.474Z,48.84
2023-05-14T14:30:16.502Z,49.92
2023-05-14T14:32:47.837Z,50.50
2023-05-14T14:35:16.471Z,50.81
2023-05-14T14:37:46.018Z,51.17
2023-05-14T14:40:13.111Z,53.21
2023-05-14T14:42:40.202Z,55.67
2023-05-14T14:45:07.776Z,57.14
2023-05-14T14:47:36.259Z,59.38
2023-05-14T14:50:03.456Z,63.48
2023-05-14T14:52:30.575Z,69.64
2023-05-14T14:54:57.806Z,70.23
2023-05-14T14:57:25.045Z,71.06
2023-05-14T14:59:52.113Z,71.92
2023-05-14T15:02:19.928Z,72.69
2023-05-14T15:04:47.037Z,74.13
2023-05-14T15:07:16.543Z,73.79
2023-05-14T15:09:46.236Z,75.57
2023-05-14T15:12:14.255Z,76.24
2023-05-14T15:14:41.430Z,76.63
2023-05-14T15:17:08.754Z,77.34
2023-05-14T15:19:36.008Z,78.00
2023-05-14T15:22:03.041Z,78.28
2023-05-14T15:24:30.173Z,78.84
2023-05-14T15:26:57.214Z,79.16
2023-05-14T15:29:24.497Z,79.59
2023-05-14T15:31:51.648Z,80.01
2023-05-14T15:34:18.705Z,80.46
2023-05-14T15:36:45.825Z,80.76
2023-05-14T15:39:12.886Z,80.03
2023-05-14T15:41:40.010Z,79.88
2023-05-14T15:44:07.288Z,79.85
2023-05-14T15:46:34.443Z,80.51
2023-05-14T15:49:01.625Z,79.97
2023-05-14T15:51:28.839Z,80.00
2023-05-14T15:53:55.942Z,80.53
2023-05-14T15:56:23.702Z,80.37
2023-05-14T15:58:50.813Z,80.61
2023-05-14T16:01:18.948Z,81.39
2023-05-14T16:03:46.188Z,81.06
2023-05-14T16:06:13.362Z,81.10
2023-05-14T16:08:41.408Z,81.34
2023-05-14T16:11:08.563Z,81.27
2023-05-14T16:13:37.763Z,81.04
2023-05-14T16:16:05.401Z,82.03
2023-05-14T16:18:33.389Z,80.95
2023-05-14T16:21:00.805Z,80.52
2023-05-14T16:23:27.961Z,79.23
2023-05-14T16:25:55.078Z,79.93
2023-05-14T16:28:22.208Z,80.15
2023-05-14T16:30:49.302Z,80.50
2023-05-14T16:33:16.396Z,80.22
2023-05-14T16:35:43.670Z,81.81
2023-05-14T16:38:10.965Z,81.50
2023-05-14T16:40:37.982Z,80.64
2023-05-14T16:43:05.133Z,80.96
2023-05-14T16:45:34.243Z,81.07
2023-05-14T16:48:01.469Z,81.03
2023-05-14T16:50:28.765Z,81.06
2023-05-14T16:52:55.836Z,81.04
2023-05-14T16:55:23.233Z,81.18
2023-05-14T16:57:50.598Z,81.63
2023-05-14T17:00:18.233Z,80.61
2023-05-14T17:02:48.941Z,81.23
2023-05-14T17:05:16.268Z,81.34
2023-05-14T17:07:43.361Z,80.92
2023-05-14T17:10:10.596Z,81.02
2023-05-14T17:12:37.761Z,81.11
2023-05-14T17:15:08.184Z,80.26
2023-05-14T17:17:35.432Z,80.79
2023-05-14T17:20:03.294Z,81.28
2023-05-14T17:22:30.533Z,81.65
2023-05-14T17:24:57.674Z,81.50
2023-05-14T17:27:24.790Z,82.18
2023-05-14T17:29:52.490Z,81.85
2023-05-14T17:32:19.687Z,80.76
2023-05-14T17:34:46.764Z,80.87
2023-05-14T17:37:13.978Z,80.85
2023-05-14T17:39:41.061Z,81.37
2023-05-14T17:42:09.066Z,81.31
2023-05-14T17:44:37.066Z,82.19
2023-05-14T17:47:04.648Z,82.60
2023-05-14T17:49:31.866Z,81.60
2023-05-14T17:51:59.004Z,81.51
2023-05-14T17:54:26.070Z,81.55
2023-05-14T17:56:53.797Z,81.84
2023-05-14T17:59:22.515Z,82.36
2023-05-14T18:01:51.247Z,82.22
2023-05-14T18:04:18.343Z,82.86
2023-05-14T18:06:46.942Z,83.18
2023-05-14T18:09:14.141Z,83.20
2023-05-14T18:11:41.468Z,83.01
2023-05-14T18:14:08.610Z,83.61
2023-05-14T18:16:36.956Z,83.47
2023-05-14T18:19:04.516Z,83.26
2023-05-14T18:21:31.585Z,83.52
2023-05-14T18:23:58.673Z,84.01
2023-05-14T18:26:26.594Z,83.91
2023-05-14T18:28:53.641Z,83.73
2023-05-14T18:31:20.849Z,83.84
2023-05-14T18:33:48.040Z,83.88
2023-05-14T18:36:15.124Z,83.75
2023-05-14T18:38:42.244Z,83.60
2023-05-14T18:41:09.273Z,84.04
2023-05-14T18:43:36.304Z,83.97
2023-05-14T18:46:03.442Z,83.69
2023-05-14T18:48:31.139Z,83.75
2023-05-14T18:50:58.188Z,84.02
2023-05-14T18:53:25.564Z,83.94
2023-05-14T18:55:52.602Z,84.16
2023-05-14T18:58:19.692Z,84.16
2023-05-14T19:00:46.759Z,84.57
2023-05-14T19:03:14.120Z,84.25
2023-05-14T19:05:41.270Z,84.02
2023-05-14T19:08:08.343Z,83.21
2023-05-14T19:10:35.428Z,82.99
2023-05-14T19:13:02.916Z,83.28
2023-05-14T19:15:30.098Z,82.74
2023-05-14T19:17:57.196Z,82.62
2023-05-14T19:20:24.262Z,83.25
2023-05-14T19:22:51.360Z,83.89
2023-05-14T19:25:18.412Z,83.63
2023-05-14T19:27:45.639Z,83.87
2023-05-14T19:30:13.384Z,83.83
2023-05-14T19:32:40.617Z,83.53
2023-05-14T19:35:08.026Z,83.58
2023-05-14T19:37:35.250Z,83.46
2023-05-14T19:40:02.330Z,80.05
2023-05-14T19:42:29.477Z,80.66
2023-05-14T19:44:56.524Z,81.20
2023-05-14T19:47:23.593Z,79.34
2023-05-14T19:49:50.723Z,78.83
2023-05-14T19:52:17.843Z,77.88
2023-05-14T19:54:44.876Z,76.95
2023-05-14T19:57:12.001Z,76.41
2023-05-14T19:59:39.322Z,75.05
2023-05-14T20:02:06.361Z,74.69
2023-05-14T20:04:33.461Z,73.46
2023-05-14T20:07:01.255Z,74.85
2023-05-14T20:09:28.326Z,75.70
2023-05-14T20:11:55.363Z,75.74
2023-05-14T20:14:22.491Z,77.00
2023-05-14T20:16:49.679Z,77.48
2023-05-14T20:19:16.912Z,78.54
2023-05-14T20:21:44.061Z,78.56
2023-05-14T20:24:11.101Z,78.11
2023-05-14T20:26:38.185Z,75.06
2023-05-14T20:29:05.315Z,74.15
2023-05-14T20:31:32.345Z,75.98
2023-05-14T20:33:59.367Z,73.84
2023-05-14T20:36:26.474Z,73.77
2023-05-14T20:38:53.591Z,74.36
2023-05-14T20:41:20.904Z,74.06
2023-05-14T20:43:47.953Z,74.33
2023-05-14T20:46:15.023Z,73.32
2023-05-14T20:48:42.133Z,73.46
2023-05-14T20:51:09.246Z,72.95
2023-05-14T20:53:38.938Z,73.08
2023-05-14T20:56:06.544Z,72.64
2023-05-14T20:58:33.664Z,72.30
2023-05-14T21:01:00.815Z,72.08
2023-05-14T21:03:28.110Z,72.70
2023-05-14T21:05:56.817Z,72.38
2023-05-14T21:08:23.847Z,74.46
2023-05-14T21:10:50.892Z,72.88
2023-05-14T21:13:18.198Z,74.06
2023-05-14T21:15:45.324Z,74.44
2023-05-14T21:18:12.966Z,74.79
2023-05-14T21:20:40.739Z,75.66
2023-05-14T21:23:07.800Z,75.46
2023-05-14T21:25:34.830Z,74.86
2023-05-14T21:28:01.922Z,74.19
2023-05-14T21:30:29.019Z,73.87
2023-05-14T21:32:56.200Z,74.40
2023-05-14T21:35:23.527Z,75.86
2023-05-14T21:37:51.276Z,76.21
2023-05-14T21:40:18.305Z,76.21
2023-05-14T21:42:45.343Z,76.94
2023-05-14T21:45:12.479Z,76.49
2023-05-14T21:47:39.579Z,76.63
2023-05-14T21:50:07.179Z,77.98
2023-05-14T21:52:34.257Z,77.42
2023-05-14T21:55:01.293Z,77.71
2023-05-14T21:57:29.258Z,78.17
2023-05-14T21:59:58.826Z,78.83
2023-05-14T22:02:26.875Z,78.75
2023-05-14T22:04:53.958Z,78.72
2023-05-14T22:07:21.279Z,79.05
2023-05-14T22:09:49.338Z,78.78
2023-05-14T22:12:17.174Z,78.83
2023-05-14T22:14:44.232Z,79.11
2023-05-14T22:17:12.606Z,79.61
2023-05-14T22:19:39.643Z,79.96
2023-05-14T22:22:06.725Z,80.01
2023-05-14T22:24:33.764Z,80.24
2023-05-14T22:27:00.841Z,80.34
2023-05-14T22:29:27.908Z,80.17
2023-05-14T22:31:55.010Z,80.23
2023-05-14T22:34:22.231Z,80.78
2023-05-14T22:36:49.293Z,80.98
2023-05-14T22:39:16.359Z,81.01
2023-05-14T22:41:43.451Z,81.05
2023-05-14T22:44:10.526Z,80.52
2023-05-14T22:46:37.608Z,80.52
2023-05-14T22:49:04.695Z,80.36
2023-05-14T22:51:31.757Z,80.83
2023-05-14T22:53:58.781Z,80.95
2023-05-14T22:56:25.807Z,81.15
2023-05-14T22:58:52.960Z,81.23
2023-05-14T23:01:20.009Z,81.64
2023-05-14T23:03:47.086Z,81.46
2023-05-14T23:06:14.745Z,80.85
2023-05-14T23:08:42.125Z,80.71
2023-05-14T23:11:09.161Z,81.13
2023-05-14T23:13:36.541Z,80.99
2023-05-14T23:16:03.781Z,81.70
2023-05-14T23:18:30.967Z,81.98
2023-05-14T23:20:58.241Z,82.23
2023-05-14T23:23:25.637Z,81.60
2023-05-14T23:25:53.912Z,82.51
2023-05-14T23:28:20.994Z,82.40
2023-05-14T23:30:48.064Z,82.94
2023-05-14T23:33:15.155Z,82.94
2023-05-14T23:35:42.520Z,82.24
2023-05-14T23:38:09.580Z,82.32
2023-05-14T23:40:37.034Z,82.25
2023-05-14T23:43:04.145Z,82.01
2023-05-14T23:45:31.341Z,82.25
2023-05-14T23:47:58.790Z,82.54
2023-05-14T23:50:26.006Z,82.79
2023-05-14T23:52:53.901Z,82.58
2023-05-14T23:55:21.018Z,82.48
2023-05-14T23:57:48.812Z,82.73
